CCA8952 ZSHC-ZYTL
Flight info
| Callsign | CCA8952 |
|---|---|
| Flight time | 1h 47m |
| Altitude | 29100 |
| Route | DSH W505 SUPAR B221 GOVNI V140 IDNIK V141 ALDAP B221 XDX DCT URBAD W172 IGDEG W173 NIXEP NIX19A |
| Aircraft | A321/M-SDE3FGHIRWY/LB1 |
Departure
| Time | 2026-04-27 13:40 |
|---|---|
| Airport | Hangzhou Xiaoshan International Airport (ZSHC) |
Arrival
| Time | 2026-04-27 15:28 |
|---|---|
| Airport | Dalian Zhoushuizi International Airport (ZYTL) |
| Time | Latitude | Longitude | Altitude | Speed | Heading |
|---|---|---|---|---|---|
| 2026-04-27 12:47 | 30.24094 | 120.42831 | 31 ft | 0 kts | 243° |
| 2026-04-27 13:27 | 30.24097 | 120.42838 | 31 ft | 3 kts | 243° |
| 2026-04-27 13:28 | 30.24107 | 120.42859 | 31 ft | 2 kts | 243° |
| 2026-04-27 13:28 | 30.24114 | 120.42876 | 32 ft | 3 kts | 266° |
| 2026-04-27 13:28 | 30.24111 | 120.42890 | 29 ft | 3 kts | 330° |
| 2026-04-27 13:28 | 30.24094 | 120.42900 | 30 ft | 3 kts | 333° |
| 2026-04-27 13:29 | 30.24083 | 120.42907 | 31 ft | 0 kts | 333° |
| 2026-04-27 13:31 | 30.24085 | 120.42905 | 32 ft | 2 kts | 333° |
| 2026-04-27 13:31 | 30.24109 | 120.42891 | 29 ft | 6 kts | 332° |
| 2026-04-27 13:31 | 30.24159 | 120.42861 | 32 ft | 10 kts | 333° |
| 2026-04-27 13:32 | 30.24237 | 120.42815 | 31 ft | 13 kts | 333° |
| 2026-04-27 13:32 | 30.24288 | 120.42792 | 32 ft | 5 kts | 359° |
| 2026-04-27 13:32 | 30.24321 | 120.42802 | 32 ft | 5 kts | 13° |
| 2026-04-27 13:32 | 30.24355 | 120.42796 | 32 ft | 5 kts | 340° |
| 2026-04-27 13:33 | 30.24392 | 120.42777 | 30 ft | 6 kts | 335° |
| 2026-04-27 13:33 | 30.24433 | 120.42753 | 32 ft | 8 kts | 333° |
| 2026-04-27 13:33 | 30.24451 | 120.42692 | 32 ft | 10 kts | 251° |
| 2026-04-27 13:33 | 30.24421 | 120.42621 | 31 ft | 11 kts | 243° |
| 2026-04-27 13:34 | 30.24385 | 120.42540 | 30 ft | 12 kts | 243° |
| 2026-04-27 13:34 | 30.24347 | 120.42454 | 32 ft | 12 kts | 243° |
| 2026-04-27 13:34 | 30.24307 | 120.42363 | 32 ft | 13 kts | 243° |
| 2026-04-27 13:34 | 30.24264 | 120.42266 | 32 ft | 14 kts | 243° |
| 2026-04-27 13:35 | 30.24219 | 120.42164 | 32 ft | 15 kts | 243° |
| 2026-04-27 13:35 | 30.24172 | 120.42058 | 32 ft | 15 kts | 243° |
| 2026-04-27 13:35 | 30.24122 | 120.41946 | 32 ft | 16 kts | 243° |
| 2026-04-27 13:35 | 30.24073 | 120.41835 | 32 ft | 15 kts | 243° |
| 2026-04-27 13:36 | 30.24023 | 120.41723 | 32 ft | 16 kts | 243° |
| 2026-04-27 13:36 | 30.23968 | 120.41598 | 32 ft | 18 kts | 243° |
| 2026-04-27 13:36 | 30.23908 | 120.41463 | 32 ft | 20 kts | 243° |
| 2026-04-27 13:36 | 30.23845 | 120.41319 | 32 ft | 20 kts | 243° |
| 2026-04-27 13:37 | 30.23783 | 120.41179 | 32 ft | 19 kts | 243° |
| 2026-04-27 13:37 | 30.23729 | 120.41057 | 32 ft | 12 kts | 243° |
| 2026-04-27 13:37 | 30.23693 | 120.40976 | 31 ft | 8 kts | 245° |
| 2026-04-27 13:37 | 30.23697 | 120.40928 | 33 ft | 5 kts | 301° |
| 2026-04-27 13:38 | 30.23719 | 120.40905 | 33 ft | 4 kts | 330° |
| 2026-04-27 13:38 | 30.23746 | 120.40890 | 33 ft | 5 kts | 334° |
| 2026-04-27 13:38 | 30.23777 | 120.40873 | 33 ft | 5 kts | 334° |
| 2026-04-27 13:38 | 30.23817 | 120.40858 | 34 ft | 6 kts | 1° |
| 2026-04-27 13:39 | 30.23846 | 120.40889 | 33 ft | 1 kts | 62° |
| 2026-04-27 13:39 | 30.23888 | 120.40984 | 34 ft | 44 kts | 62° |
| 2026-04-27 13:39 | 30.24135 | 120.41542 | 31 ft | 109 kts | 63° |
| 2026-04-27 13:40 | 30.24562 | 120.42504 | 30 ft | 158 kts | 63° |
| 2026-04-27 13:40 | 30.25105 | 120.43743 | 280 ft | 177 kts | 62° |
| 2026-04-27 13:40 | 30.25660 | 120.45010 | 880 ft | 177 kts | 63° |
| 2026-04-27 13:40 | 30.26221 | 120.46272 | 1475 ft | 176 kts | 63° |
| 2026-04-27 13:41 | 30.26778 | 120.47522 | 2022 ft | 174 kts | 63° |
| 2026-04-27 13:41 | 30.27332 | 120.48769 | 2486 ft | 175 kts | 62° |
| 2026-04-27 13:41 | 30.27888 | 120.50019 | 2949 ft | 175 kts | 62° |
| 2026-04-27 13:41 | 30.28452 | 120.51291 | 3295 ft | 185 kts | 62° |
| 2026-04-27 13:42 | 30.29070 | 120.52682 | 3430 ft | 204 kts | 62° |
| 2026-04-27 13:42 | 30.29749 | 120.54214 | 3558 ft | 224 kts | 62° |
| 2026-04-27 13:42 | 30.30496 | 120.55901 | 3664 ft | 248 kts | 62° |
| 2026-04-27 13:42 | 30.31314 | 120.57750 | 4022 ft | 265 kts | 62° |
| 2026-04-27 13:43 | 30.32014 | 120.59744 | 4645 ft | 271 kts | 79° |
| 2026-04-27 13:43 | 30.31958 | 120.61925 | 5293 ft | 276 kts | 106° |
| 2026-04-27 13:43 | 30.31056 | 120.63881 | 5967 ft | 279 kts | 133° |
| 2026-04-27 13:43 | 30.29496 | 120.65202 | 6650 ft | 280 kts | 154° |
| 2026-04-27 13:44 | 30.27752 | 120.66217 | 7337 ft | 282 kts | 154° |
| 2026-04-27 13:44 | 30.25986 | 120.67237 | 8015 ft | 285 kts | 154° |
| 2026-04-27 13:44 | 30.24202 | 120.68269 | 8693 ft | 288 kts | 155° |
| 2026-04-27 13:44 | 30.22405 | 120.69314 | 9354 ft | 291 kts | 155° |
| 2026-04-27 13:45 | 30.20581 | 120.70390 | 9678 ft | 295 kts | 152° |
| 2026-04-27 13:45 | 30.18947 | 120.71830 | 9735 ft | 297 kts | 135° |
| 2026-04-27 13:45 | 30.17713 | 120.73741 | 9740 ft | 298 kts | 122° |
| 2026-04-27 13:45 | 30.16632 | 120.75785 | 9739 ft | 298 kts | 123° |
| 2026-04-27 13:46 | 30.15538 | 120.77823 | 9742 ft | 298 kts | 123° |
| 2026-04-27 13:46 | 30.14441 | 120.79857 | 9742 ft | 298 kts | 123° |
| 2026-04-27 13:46 | 30.13343 | 120.81895 | 9742 ft | 299 kts | 121° |
| 2026-04-27 13:46 | 30.12502 | 120.84086 | 9743 ft | 300 kts | 110° |
| 2026-04-27 13:47 | 30.11814 | 120.86358 | 9739 ft | 300 kts | 110° |
| 2026-04-27 13:47 | 30.11122 | 120.88631 | 9739 ft | 300 kts | 110° |
| 2026-04-27 13:47 | 30.10427 | 120.90900 | 9739 ft | 300 kts | 110° |
| 2026-04-27 13:47 | 30.09782 | 120.93188 | 9739 ft | 300 kts | 102° |
| 2026-04-27 13:48 | 30.09674 | 120.95586 | 9788 ft | 301 kts | 83° |
| 2026-04-27 13:48 | 30.10257 | 120.97912 | 10020 ft | 304 kts | 62° |
| 2026-04-27 13:48 | 30.11418 | 120.99974 | 10491 ft | 314 kts | 53° |
| 2026-04-27 13:48 | 30.12756 | 121.02074 | 10617 ft | 335 kts | 52° |
| 2026-04-27 13:49 | 30.14188 | 121.04303 | 10737 ft | 355 kts | 52° |
| 2026-04-27 13:49 | 30.15691 | 121.06631 | 11075 ft | 366 kts | 52° |
| 2026-04-27 13:49 | 30.17224 | 121.09002 | 11579 ft | 371 kts | 52° |
| 2026-04-27 13:49 | 30.18778 | 121.11410 | 12070 ft | 377 kts | 52° |
| 2026-04-27 13:50 | 30.20352 | 121.13860 | 12601 ft | 382 kts | 52° |
| 2026-04-27 13:50 | 30.21944 | 121.16342 | 13098 ft | 387 kts | 52° |
| 2026-04-27 13:50 | 30.23562 | 121.18864 | 13603 ft | 393 kts | 52° |
| 2026-04-27 13:50 | 30.25201 | 121.21418 | 14062 ft | 398 kts | 52° |
| 2026-04-27 13:51 | 30.26824 | 121.24025 | 14529 ft | 402 kts | 53° |
| 2026-04-27 13:51 | 30.28396 | 121.26719 | 15004 ft | 406 kts | 55° |
| 2026-04-27 13:51 | 30.29935 | 121.29471 | 15480 ft | 409 kts | 56° |
| 2026-04-27 13:51 | 30.31465 | 121.32256 | 15942 ft | 412 kts | 56° |
| 2026-04-27 13:52 | 30.33011 | 121.35069 | 16389 ft | 415 kts | 56° |
| 2026-04-27 13:52 | 30.34575 | 121.37894 | 16824 ft | 419 kts | 56° |
| 2026-04-27 13:52 | 30.36308 | 121.40606 | 17240 ft | 420 kts | 46° |
| 2026-04-27 13:52 | 30.38248 | 121.43152 | 17679 ft | 423 kts | 46° |
| 2026-04-27 13:53 | 30.42185 | 121.48270 | 18465 ft | 427 kts | 43° |
| 2026-04-27 13:53 | 30.44410 | 121.50537 | 18803 ft | 426 kts | 33° |
| 2026-04-27 13:53 | 30.46887 | 121.52406 | 19128 ft | 425 kts | 28° |
| 2026-04-27 13:54 | 30.49408 | 121.54216 | 19475 ft | 427 kts | 28° |
| 2026-04-27 13:54 | 30.51938 | 121.56036 | 19807 ft | 429 kts | 28° |
| 2026-04-27 13:54 | 30.54475 | 121.57866 | 20131 ft | 430 kts | 28° |
| 2026-04-27 13:54 | 30.57022 | 121.59706 | 20475 ft | 432 kts | 28° |
| 2026-04-27 13:55 | 30.59583 | 121.61557 | 20755 ft | 435 kts | 28° |
| 2026-04-27 13:55 | 30.62156 | 121.63420 | 21061 ft | 438 kts | 28° |
| 2026-04-27 13:55 | 30.64748 | 121.65301 | 21363 ft | 440 kts | 28° |
| 2026-04-27 13:55 | 30.67346 | 121.67189 | 21675 ft | 442 kts | 28° |
| 2026-04-27 13:56 | 30.69960 | 121.69088 | 21989 ft | 444 kts | 28° |
| 2026-04-27 13:56 | 30.72583 | 121.70993 | 22304 ft | 446 kts | 28° |
| 2026-04-27 13:56 | 30.75226 | 121.72911 | 22616 ft | 448 kts | 28° |
| 2026-04-27 13:56 | 30.77879 | 121.74832 | 22955 ft | 451 kts | 28° |
| 2026-04-27 13:57 | 30.80549 | 121.76768 | 23260 ft | 453 kts | 28° |
| 2026-04-27 13:57 | 30.83227 | 121.78717 | 23559 ft | 455 kts | 28° |
| 2026-04-27 13:57 | 30.85918 | 121.80681 | 23818 ft | 458 kts | 28° |
| 2026-04-27 13:57 | 30.88620 | 121.82657 | 24078 ft | 460 kts | 28° |
| 2026-04-27 13:58 | 30.91339 | 121.84643 | 24353 ft | 462 kts | 28° |
| 2026-04-27 13:58 | 30.94063 | 121.86631 | 24649 ft | 463 kts | 28° |
| 2026-04-27 13:58 | 30.96802 | 121.88629 | 24950 ft | 465 kts | 28° |
| 2026-04-27 13:58 | 30.99515 | 121.90611 | 25189 ft | 468 kts | 27° |
| 2026-04-27 13:59 | 31.02277 | 121.92632 | 25441 ft | 470 kts | 27° |
| 2026-04-27 13:59 | 31.05087 | 121.94689 | 25708 ft | 472 kts | 27° |
| 2026-04-27 13:59 | 31.07836 | 121.96702 | 25983 ft | 473 kts | 27° |
| 2026-04-27 13:59 | 31.10629 | 121.98746 | 26245 ft | 475 kts | 27° |
| 2026-04-27 14:00 | 31.13434 | 122.00801 | 26528 ft | 477 kts | 27° |
| 2026-04-27 14:00 | 31.16249 | 122.02865 | 26778 ft | 478 kts | 27° |
| 2026-04-27 14:00 | 31.19076 | 122.04940 | 26997 ft | 482 kts | 27° |
| 2026-04-27 14:00 | 31.21925 | 122.07032 | 27206 ft | 485 kts | 27° |
| 2026-04-27 14:01 | 31.24780 | 122.09131 | 27456 ft | 486 kts | 27° |
| 2026-04-27 14:01 | 31.27644 | 122.11241 | 27742 ft | 487 kts | 27° |
| 2026-04-27 14:01 | 31.30517 | 122.13359 | 28001 ft | 489 kts | 27° |
| 2026-04-27 14:01 | 31.33396 | 122.15482 | 28243 ft | 490 kts | 27° |
| 2026-04-27 14:02 | 31.36283 | 122.17613 | 28505 ft | 492 kts | 26° |
| 2026-04-27 14:02 | 31.39184 | 122.19757 | 28685 ft | 495 kts | 26° |
| 2026-04-27 14:02 | 31.42100 | 122.21911 | 28875 ft | 497 kts | 26° |
| 2026-04-27 14:02 | 31.45027 | 122.24074 | 29050 ft | 498 kts | 26° |
| 2026-04-27 14:03 | 31.47922 | 122.26221 | 29085 ft | 487 kts | 26° |
| 2026-04-27 14:03 | 31.53589 | 122.30437 | 29083 ft | 480 kts | 26° |
| 2026-04-27 14:04 | 31.59482 | 122.33820 | 29078 ft | 463 kts | 7° |
| 2026-04-27 14:04 | 31.62605 | 122.34516 | 29086 ft | 452 kts | 357° |
| 2026-04-27 14:04 | 31.65713 | 122.34571 | 29085 ft | 441 kts | 347° |
| 2026-04-27 14:05 | 31.71523 | 122.32946 | 29088 ft | 422 kts | 330° |
| 2026-04-27 14:05 | 31.76994 | 122.30409 | 29086 ft | 422 kts | 330° |
| 2026-04-27 14:06 | 31.82380 | 122.27686 | 29115 ft | 421 kts | 328° |
| 2026-04-27 14:06 | 31.87801 | 122.25029 | 29109 ft | 423 kts | 330° |
| 2026-04-27 14:07 | 31.92380 | 122.22980 | 29103 ft | 424 kts | 331° |
| 2026-04-27 14:07 | 31.97906 | 122.20551 | 29101 ft | 424 kts | 331° |
| 2026-04-27 14:08 | 32.04341 | 122.17671 | 29097 ft | 423 kts | 330° |
| 2026-04-27 14:08 | 32.08902 | 122.15594 | 29095 ft | 422 kts | 330° |
| 2026-04-27 14:09 | 32.15271 | 122.12690 | 29092 ft | 422 kts | 330° |
| 2026-04-27 14:09 | 32.19863 | 122.10601 | 29089 ft | 422 kts | 330° |
| 2026-04-27 14:10 | 32.25346 | 122.08111 | 29080 ft | 422 kts | 330° |
| 2026-04-27 14:10 | 32.30818 | 122.05619 | 29087 ft | 421 kts | 330° |
| 2026-04-27 14:11 | 32.36285 | 122.03123 | 29111 ft | 421 kts | 330° |
| 2026-04-27 14:11 | 32.41736 | 122.00631 | 29105 ft | 419 kts | 330° |
| 2026-04-27 14:12 | 32.47172 | 121.98140 | 29101 ft | 418 kts | 330° |
| 2026-04-27 14:12 | 32.52600 | 121.95658 | 29091 ft | 418 kts | 330° |
| 2026-04-27 14:13 | 32.58028 | 121.93177 | 29084 ft | 418 kts | 330° |
| 2026-04-27 14:13 | 32.63448 | 121.90686 | 29104 ft | 417 kts | 330° |
| 2026-04-27 14:14 | 32.68855 | 121.88193 | 29099 ft | 417 kts | 330° |
| 2026-04-27 14:14 | 32.74225 | 121.85721 | 29091 ft | 416 kts | 330° |
| 2026-04-27 14:15 | 32.79661 | 121.83214 | 29085 ft | 416 kts | 330° |
| 2026-04-27 14:15 | 32.85017 | 121.80735 | 29078 ft | 416 kts | 330° |
| 2026-04-27 14:16 | 32.90407 | 121.78239 | 29095 ft | 416 kts | 330° |
| 2026-04-27 14:16 | 32.95804 | 121.75747 | 29079 ft | 416 kts | 330° |
| 2026-04-27 14:17 | 33.01196 | 121.73249 | 29078 ft | 416 kts | 330° |
| 2026-04-27 14:17 | 33.06587 | 121.70745 | 29072 ft | 416 kts | 330° |
| 2026-04-27 14:18 | 33.11981 | 121.68241 | 29081 ft | 416 kts | 330° |
| 2026-04-27 14:18 | 33.17375 | 121.65725 | 29106 ft | 416 kts | 330° |
| 2026-04-27 14:19 | 33.22768 | 121.63209 | 29105 ft | 416 kts | 330° |
| 2026-04-27 14:19 | 33.28141 | 121.60659 | 29105 ft | 415 kts | 329° |
| 2026-04-27 14:20 | 33.33428 | 121.57934 | 29102 ft | 413 kts | 328° |
| 2026-04-27 14:20 | 33.38690 | 121.55162 | 29130 ft | 413 kts | 328° |
| 2026-04-27 14:21 | 33.43966 | 121.52418 | 29121 ft | 413 kts | 328° |
| 2026-04-27 14:21 | 33.49243 | 121.49711 | 29128 ft | 412 kts | 328° |
| 2026-04-27 14:22 | 33.54516 | 121.47008 | 29123 ft | 412 kts | 328° |
| 2026-04-27 14:22 | 33.59775 | 121.44301 | 29119 ft | 411 kts | 328° |
| 2026-04-27 14:23 | 33.64982 | 121.41601 | 29127 ft | 410 kts | 328° |
| 2026-04-27 14:23 | 33.70237 | 121.38941 | 29144 ft | 410 kts | 329° |
| 2026-04-27 14:24 | 33.75549 | 121.36454 | 29139 ft | 410 kts | 330° |
| 2026-04-27 14:24 | 33.80862 | 121.33995 | 29128 ft | 409 kts | 330° |
| 2026-04-27 14:25 | 33.86152 | 121.31504 | 29124 ft | 408 kts | 329° |
| 2026-04-27 14:25 | 33.91428 | 121.28994 | 29150 ft | 408 kts | 329° |
| 2026-04-27 14:26 | 33.96700 | 121.26487 | 29148 ft | 407 kts | 329° |
| 2026-04-27 14:26 | 34.01961 | 121.23990 | 29152 ft | 406 kts | 329° |
| 2026-04-27 14:27 | 34.07217 | 121.21491 | 29137 ft | 406 kts | 329° |
| 2026-04-27 14:27 | 34.12469 | 121.18987 | 29135 ft | 406 kts | 329° |
| 2026-04-27 14:28 | 34.17722 | 121.16473 | 29165 ft | 406 kts | 328° |
| 2026-04-27 14:28 | 34.22980 | 121.13956 | 29154 ft | 407 kts | 328° |
| 2026-04-27 14:29 | 34.28248 | 121.11445 | 29151 ft | 407 kts | 328° |
| 2026-04-27 14:29 | 34.33515 | 121.08922 | 29149 ft | 407 kts | 328° |
| 2026-04-27 14:30 | 34.38784 | 121.06389 | 29152 ft | 407 kts | 328° |
| 2026-04-27 14:30 | 34.44048 | 121.03854 | 29188 ft | 407 kts | 328° |
| 2026-04-27 14:31 | 34.49316 | 121.01321 | 29163 ft | 408 kts | 328° |
| 2026-04-27 14:31 | 34.54591 | 120.98783 | 29149 ft | 408 kts | 328° |
| 2026-04-27 14:32 | 34.59830 | 120.96256 | 29150 ft | 408 kts | 328° |
| 2026-04-27 14:32 | 34.65113 | 120.93703 | 29149 ft | 409 kts | 328° |
| 2026-04-27 14:33 | 34.70403 | 120.91144 | 29148 ft | 410 kts | 328° |
| 2026-04-27 14:33 | 34.75701 | 120.88571 | 29152 ft | 410 kts | 328° |
| 2026-04-27 14:34 | 34.81002 | 120.85996 | 29143 ft | 410 kts | 328° |
| 2026-04-27 14:34 | 34.86303 | 120.83418 | 29146 ft | 411 kts | 328° |
| 2026-04-27 14:35 | 34.91611 | 120.80834 | 29153 ft | 411 kts | 328° |
| 2026-04-27 14:35 | 34.96918 | 120.78248 | 29183 ft | 411 kts | 328° |
| 2026-04-27 14:36 | 35.02233 | 120.75659 | 29167 ft | 412 kts | 328° |
| 2026-04-27 14:36 | 35.07555 | 120.73068 | 29151 ft | 412 kts | 328° |
| 2026-04-27 14:37 | 35.12873 | 120.70463 | 29152 ft | 412 kts | 328° |
| 2026-04-27 14:37 | 35.18200 | 120.67853 | 29154 ft | 413 kts | 328° |
| 2026-04-27 14:38 | 35.23533 | 120.65257 | 29196 ft | 412 kts | 328° |
| 2026-04-27 14:38 | 35.28863 | 120.62681 | 29193 ft | 411 kts | 328° |
| 2026-04-27 14:39 | 35.34178 | 120.60103 | 29187 ft | 411 kts | 328° |
| 2026-04-27 14:39 | 35.39483 | 120.57516 | 29188 ft | 410 kts | 328° |
| 2026-04-27 14:40 | 35.44800 | 120.54944 | 29219 ft | 411 kts | 328° |
| 2026-04-27 14:40 | 35.50114 | 120.52379 | 29208 ft | 410 kts | 327° |
| 2026-04-27 14:41 | 35.55402 | 120.49807 | 29208 ft | 408 kts | 327° |
| 2026-04-27 14:41 | 35.60674 | 120.47227 | 29202 ft | 407 kts | 327° |
| 2026-04-27 14:42 | 35.65886 | 120.44682 | 29196 ft | 407 kts | 327° |
| 2026-04-27 14:42 | 35.71145 | 120.42105 | 29162 ft | 409 kts | 329° |
| 2026-04-27 14:43 | 35.76390 | 120.39545 | 29144 ft | 402 kts | 327° |
| 2026-04-27 14:43 | 35.81580 | 120.37011 | 29141 ft | 403 kts | 327° |
| 2026-04-27 14:44 | 35.86721 | 120.34490 | 29148 ft | 395 kts | 326° |
| 2026-04-27 14:44 | 35.91823 | 120.32001 | 29149 ft | 398 kts | 329° |
| 2026-04-27 14:44 | 35.94572 | 120.31320 | 29149 ft | 422 kts | 345° |
| 2026-04-27 14:45 | 35.97582 | 120.31655 | 29148 ft | 451 kts | 2° |
| 2026-04-27 14:45 | 36.00547 | 120.33241 | 29153 ft | 482 kts | 23° |
| 2026-04-27 14:45 | 36.03129 | 120.36041 | 29157 ft | 503 kts | 37° |
| 2026-04-27 14:46 | 36.07970 | 120.42291 | 29148 ft | 497 kts | 31° |
| 2026-04-27 14:46 | 36.10669 | 120.44860 | 29145 ft | 482 kts | 21° |
| 2026-04-27 14:46 | 36.13581 | 120.46739 | 29185 ft | 464 kts | 9° |
| 2026-04-27 14:46 | 36.16599 | 120.47919 | 29167 ft | 447 kts | 359° |
| 2026-04-27 14:47 | 36.19617 | 120.48499 | 29163 ft | 432 kts | 351° |
| 2026-04-27 14:47 | 36.25558 | 120.48825 | 29145 ft | 428 kts | 349° |
| 2026-04-27 14:48 | 36.31515 | 120.49167 | 29145 ft | 429 kts | 349° |
| 2026-04-27 14:48 | 36.37499 | 120.49693 | 29160 ft | 442 kts | 357° |
| 2026-04-27 14:48 | 36.40526 | 120.50700 | 29154 ft | 460 kts | 7° |
| 2026-04-27 14:49 | 36.46537 | 120.53506 | 29153 ft | 462 kts | 8° |
| 2026-04-27 14:49 | 36.52570 | 120.56082 | 29191 ft | 448 kts | 359° |
| 2026-04-27 14:50 | 36.58617 | 120.57218 | 29181 ft | 438 kts | 354° |
| 2026-04-27 14:50 | 36.64657 | 120.58251 | 29172 ft | 438 kts | 354° |
| 2026-04-27 14:51 | 36.70695 | 120.59288 | 29169 ft | 438 kts | 354° |
| 2026-04-27 14:51 | 36.75755 | 120.60167 | 29206 ft | 438 kts | 354° |
| 2026-04-27 14:52 | 36.82765 | 120.61394 | 29196 ft | 437 kts | 354° |
| 2026-04-27 14:52 | 36.88784 | 120.62431 | 29186 ft | 436 kts | 354° |
| 2026-04-27 14:53 | 36.94800 | 120.63474 | 29178 ft | 437 kts | 354° |
| 2026-04-27 14:53 | 37.00819 | 120.64584 | 29171 ft | 437 kts | 355° |
| 2026-04-27 14:54 | 37.05863 | 120.65549 | 29171 ft | 437 kts | 355° |
| 2026-04-27 14:54 | 37.11878 | 120.66679 | 29169 ft | 437 kts | 355° |
| 2026-04-27 14:55 | 37.18868 | 120.67984 | 29210 ft | 437 kts | 355° |
| 2026-04-27 14:55 | 37.24881 | 120.69113 | 29197 ft | 437 kts | 355° |
| 2026-04-27 14:56 | 37.29870 | 120.70054 | 29206 ft | 436 kts | 355° |
| 2026-04-27 14:56 | 37.35879 | 120.71180 | 28980 ft | 434 kts | 354° |
| 2026-04-27 14:57 | 37.38843 | 120.71747 | 28487 ft | 428 kts | 355° |
| 2026-04-27 14:57 | 37.41766 | 120.72307 | 28015 ft | 423 kts | 355° |
| 2026-04-27 14:57 | 37.44660 | 120.72855 | 27543 ft | 418 kts | 355° |
| 2026-04-27 14:57 | 37.47526 | 120.73397 | 27086 ft | 414 kts | 355° |
| 2026-04-27 14:58 | 37.50365 | 120.73931 | 26634 ft | 411 kts | 355° |
| 2026-04-27 14:58 | 37.53177 | 120.74460 | 26220 ft | 407 kts | 355° |
| 2026-04-27 14:58 | 37.55963 | 120.74985 | 25783 ft | 403 kts | 355° |
| 2026-04-27 14:58 | 37.58722 | 120.75505 | 25347 ft | 399 kts | 355° |
| 2026-04-27 14:59 | 37.61456 | 120.75944 | 24928 ft | 393 kts | 353° |
| 2026-04-27 14:59 | 37.64154 | 120.76287 | 24506 ft | 387 kts | 352° |
| 2026-04-27 14:59 | 37.66824 | 120.76576 | 24095 ft | 384 kts | 352° |
| 2026-04-27 14:59 | 37.69472 | 120.76846 | 23680 ft | 380 kts | 352° |
| 2026-04-27 15:00 | 37.72097 | 120.77119 | 23257 ft | 377 kts | 352° |
| 2026-04-27 15:00 | 37.74704 | 120.77406 | 22773 ft | 375 kts | 352° |
| 2026-04-27 15:00 | 37.77292 | 120.77705 | 22286 ft | 372 kts | 353° |
| 2026-04-27 15:00 | 37.79864 | 120.78009 | 21813 ft | 370 kts | 353° |
| 2026-04-27 15:01 | 37.82421 | 120.78316 | 21348 ft | 368 kts | 354° |
| 2026-04-27 15:01 | 37.84963 | 120.78624 | 20890 ft | 366 kts | 354° |
| 2026-04-27 15:01 | 37.87490 | 120.78929 | 20439 ft | 364 kts | 354° |
| 2026-04-27 15:01 | 37.90005 | 120.79231 | 19994 ft | 362 kts | 354° |
| 2026-04-27 15:02 | 37.92500 | 120.79529 | 19580 ft | 359 kts | 354° |
| 2026-04-27 15:02 | 37.94981 | 120.79827 | 19148 ft | 357 kts | 355° |
| 2026-04-27 15:02 | 37.97445 | 120.80124 | 18711 ft | 355 kts | 355° |
| 2026-04-27 15:02 | 37.99900 | 120.80680 | 18281 ft | 363 kts | 6° |
| 2026-04-27 15:03 | 38.02293 | 120.81812 | 17792 ft | 372 kts | 17° |
| 2026-04-27 15:03 | 38.04560 | 120.83442 | 17313 ft | 375 kts | 22° |
| 2026-04-27 15:03 | 38.06790 | 120.85126 | 16891 ft | 371 kts | 22° |
| 2026-04-27 15:03 | 38.09001 | 120.86793 | 16788 ft | 369 kts | 22° |
| 2026-04-27 15:04 | 38.11213 | 120.88455 | 16817 ft | 369 kts | 21° |
| 2026-04-27 15:04 | 38.13423 | 120.90114 | 16813 ft | 369 kts | 21° |
| 2026-04-27 15:04 | 38.15634 | 120.91773 | 16812 ft | 369 kts | 21° |
| 2026-04-27 15:04 | 38.17843 | 120.93432 | 16812 ft | 369 kts | 21° |
| 2026-04-27 15:05 | 38.20053 | 120.95093 | 16814 ft | 369 kts | 21° |
| 2026-04-27 15:05 | 38.22243 | 120.96818 | 16797 ft | 374 kts | 27° |
| 2026-04-27 15:05 | 38.24269 | 120.98948 | 16804 ft | 385 kts | 38° |
| 2026-04-27 15:05 | 38.25923 | 121.01678 | 16826 ft | 396 kts | 53° |
| 2026-04-27 15:06 | 38.27128 | 121.04860 | 16814 ft | 401 kts | 62° |
| 2026-04-27 15:06 | 38.28228 | 121.08119 | 16795 ft | 401 kts | 61° |
| 2026-04-27 15:06 | 38.29348 | 121.11370 | 16463 ft | 400 kts | 61° |
| 2026-04-27 15:06 | 38.30468 | 121.14588 | 16079 ft | 396 kts | 60° |
| 2026-04-27 15:07 | 38.31583 | 121.17772 | 15700 ft | 392 kts | 60° |
| 2026-04-27 15:07 | 38.32690 | 121.20932 | 15321 ft | 389 kts | 60° |
| 2026-04-27 15:07 | 38.33784 | 121.24065 | 14955 ft | 385 kts | 61° |
| 2026-04-27 15:07 | 38.34865 | 121.27177 | 14593 ft | 383 kts | 61° |
| 2026-04-27 15:08 | 38.35938 | 121.30270 | 14219 ft | 380 kts | 61° |
| 2026-04-27 15:08 | 38.37001 | 121.33342 | 13880 ft | 377 kts | 62° |
| 2026-04-27 15:08 | 38.38045 | 121.36374 | 13482 ft | 371 kts | 62° |
| 2026-04-27 15:08 | 38.39074 | 121.39369 | 13064 ft | 367 kts | 62° |
| 2026-04-27 15:09 | 38.40220 | 121.42227 | 12670 ft | 357 kts | 50° |
| 2026-04-27 15:09 | 38.41792 | 121.44590 | 12277 ft | 344 kts | 36° |
| 2026-04-27 15:09 | 38.43680 | 121.46356 | 11898 ft | 331 kts | 22° |
| 2026-04-27 15:09 | 38.45749 | 121.47503 | 11517 ft | 319 kts | 10° |
| 2026-04-27 15:10 | 38.47841 | 121.48265 | 11147 ft | 315 kts | 9° |
| 2026-04-27 15:10 | 38.49882 | 121.49013 | 10769 ft | 294 kts | 9° |
| 2026-04-27 15:10 | 38.51796 | 121.49722 | 10406 ft | 281 kts | 9° |
| 2026-04-27 15:10 | 38.53672 | 121.50411 | 10044 ft | 279 kts | 9° |
| 2026-04-27 15:11 | 38.55518 | 121.51076 | 9792 ft | 270 kts | 7° |
| 2026-04-27 15:11 | 38.57356 | 121.51417 | 9794 ft | 266 kts | 0° |
| 2026-04-27 15:11 | 38.59198 | 121.51687 | 9800 ft | 267 kts | 1° |
| 2026-04-27 15:11 | 38.61041 | 121.51958 | 9800 ft | 267 kts | 1° |
| 2026-04-27 15:12 | 38.62882 | 121.52230 | 9802 ft | 267 kts | 1° |
| 2026-04-27 15:12 | 38.64729 | 121.52506 | 9797 ft | 268 kts | 1° |
| 2026-04-27 15:12 | 38.66580 | 121.52819 | 9786 ft | 270 kts | 7° |
| 2026-04-27 15:12 | 38.68327 | 121.53805 | 9686 ft | 283 kts | 31° |
| 2026-04-27 15:13 | 38.69772 | 121.55557 | 9449 ft | 287 kts | 39° |
| 2026-04-27 15:13 | 38.71160 | 121.57382 | 9212 ft | 285 kts | 39° |
| 2026-04-27 15:13 | 38.72532 | 121.59201 | 8979 ft | 283 kts | 40° |
| 2026-04-27 15:13 | 38.73890 | 121.61006 | 8737 ft | 280 kts | 40° |
| 2026-04-27 15:14 | 38.75238 | 121.62795 | 8504 ft | 278 kts | 40° |
| 2026-04-27 15:14 | 38.76576 | 121.64567 | 8272 ft | 275 kts | 40° |
| 2026-04-27 15:14 | 38.77903 | 121.66323 | 8037 ft | 273 kts | 40° |
| 2026-04-27 15:14 | 38.79218 | 121.68067 | 7810 ft | 271 kts | 40° |
| 2026-04-27 15:15 | 38.80518 | 121.69791 | 7580 ft | 268 kts | 40° |
| 2026-04-27 15:15 | 38.81812 | 121.71500 | 7342 ft | 266 kts | 40° |
| 2026-04-27 15:15 | 38.83094 | 121.73192 | 7129 ft | 264 kts | 40° |
| 2026-04-27 15:15 | 38.84321 | 121.74928 | 6900 ft | 263 kts | 49° |
| 2026-04-27 15:16 | 38.85137 | 121.77008 | 6679 ft | 261 kts | 67° |
| 2026-04-27 15:16 | 38.85407 | 121.79303 | 6455 ft | 261 kts | 85° |
| 2026-04-27 15:16 | 38.85245 | 121.81601 | 6229 ft | 255 kts | 90° |
| 2026-04-27 15:16 | 38.85059 | 121.83834 | 5994 ft | 248 kts | 90° |
| 2026-04-27 15:17 | 38.84881 | 121.86001 | 5780 ft | 239 kts | 89° |
| 2026-04-27 15:17 | 38.84711 | 121.88078 | 5531 ft | 231 kts | 89° |
| 2026-04-27 15:17 | 38.84551 | 121.90110 | 5298 ft | 228 kts | 89° |
| 2026-04-27 15:17 | 38.84399 | 121.92129 | 5068 ft | 227 kts | 89° |
| 2026-04-27 15:18 | 38.84301 | 121.94129 | 4841 ft | 220 kts | 78° |
| 2026-04-27 15:18 | 38.84726 | 121.95935 | 4607 ft | 208 kts | 53° |
| 2026-04-27 15:18 | 38.85674 | 121.97243 | 4366 ft | 195 kts | 30° |
| 2026-04-27 15:18 | 38.86883 | 121.97875 | 4134 ft | 184 kts | 8° |
| 2026-04-27 15:19 | 38.88126 | 121.97834 | 3909 ft | 176 kts | 349° |
| 2026-04-27 15:19 | 38.89220 | 121.97213 | 3683 ft | 171 kts | 331° |
| 2026-04-27 15:19 | 38.90045 | 121.96135 | 3454 ft | 171 kts | 313° |
| 2026-04-27 15:19 | 38.90711 | 121.94906 | 3225 ft | 165 kts | 314° |
| 2026-04-27 15:20 | 38.91359 | 121.93722 | 3023 ft | 158 kts | 315° |
| 2026-04-27 15:20 | 38.91968 | 121.92606 | 2981 ft | 148 kts | 315° |
| 2026-04-27 15:20 | 38.92549 | 121.91545 | 2981 ft | 144 kts | 315° |
| 2026-04-27 15:20 | 38.93123 | 121.90503 | 2982 ft | 143 kts | 315° |
| 2026-04-27 15:21 | 38.93561 | 121.89350 | 2984 ft | 151 kts | 297° |
| 2026-04-27 15:21 | 38.93795 | 121.87998 | 2983 ft | 154 kts | 291° |
| 2026-04-27 15:21 | 38.93958 | 121.86631 | 2993 ft | 155 kts | 289° |
| 2026-04-27 15:21 | 38.94089 | 121.85269 | 2995 ft | 156 kts | 288° |
| 2026-04-27 15:22 | 38.94209 | 121.83882 | 2995 ft | 157 kts | 288° |
| 2026-04-27 15:22 | 38.94325 | 121.82479 | 2997 ft | 158 kts | 288° |
| 2026-04-27 15:22 | 38.94438 | 121.81071 | 3000 ft | 158 kts | 288° |
| 2026-04-27 15:22 | 38.94550 | 121.79667 | 2988 ft | 158 kts | 288° |
| 2026-04-27 15:23 | 38.94662 | 121.78260 | 2992 ft | 158 kts | 288° |
| 2026-04-27 15:23 | 38.94773 | 121.76851 | 2998 ft | 159 kts | 288° |
| 2026-04-27 15:23 | 38.94885 | 121.75439 | 3002 ft | 159 kts | 288° |
| 2026-04-27 15:23 | 38.94997 | 121.74020 | 2931 ft | 160 kts | 287° |
| 2026-04-27 15:24 | 38.95108 | 121.72603 | 2772 ft | 158 kts | 287° |
| 2026-04-27 15:24 | 38.95217 | 121.71204 | 2590 ft | 156 kts | 288° |
| 2026-04-27 15:24 | 38.95321 | 121.69861 | 2379 ft | 148 kts | 288° |
| 2026-04-27 15:24 | 38.95422 | 121.68566 | 2181 ft | 144 kts | 288° |
| 2026-04-27 15:25 | 38.95523 | 121.67292 | 1988 ft | 143 kts | 289° |
| 2026-04-27 15:25 | 38.95622 | 121.66028 | 1792 ft | 142 kts | 289° |
| 2026-04-27 15:25 | 38.95721 | 121.64769 | 1589 ft | 142 kts | 288° |
| 2026-04-27 15:25 | 38.95819 | 121.63510 | 1399 ft | 141 kts | 287° |
| 2026-04-27 15:26 | 38.95916 | 121.62259 | 1204 ft | 140 kts | 286° |
| 2026-04-27 15:26 | 38.96013 | 121.61022 | 1016 ft | 138 kts | 285° |
| 2026-04-27 15:26 | 38.96107 | 121.59802 | 820 ft | 137 kts | 284° |
| 2026-04-27 15:26 | 38.96201 | 121.58588 | 637 ft | 137 kts | 282° |
| 2026-04-27 15:27 | 38.96293 | 121.57361 | 432 ft | 139 kts | 277° |
| 2026-04-27 15:27 | 38.96387 | 121.56136 | 241 ft | 138 kts | 277° |
| 2026-04-27 15:27 | 38.96476 | 121.54920 | 124 ft | 132 kts | 277° |
| 2026-04-27 15:27 | 38.96553 | 121.53911 | 116 ft | 87 kts | 276° |
| 2026-04-27 15:28 | 38.96596 | 121.53359 | 116 ft | 39 kts | 275° |
| 2026-04-27 15:28 | 38.96612 | 121.53067 | 116 ft | 29 kts | 268° |
| 2026-04-27 15:28 | 38.96573 | 121.52852 | 113 ft | 21 kts | 248° |
| 2026-04-27 15:28 | 38.96525 | 121.52714 | 113 ft | 12 kts | 245° |
| 2026-04-27 15:29 | 38.96485 | 121.52670 | 114 ft | 7 kts | 184° |
| 2026-04-27 15:29 | 38.96451 | 121.52700 | 113 ft | 6 kts | 118° |
| 2026-04-27 15:29 | 38.96444 | 121.52747 | 116 ft | 5 kts | 98° |
| 2026-04-27 15:29 | 38.96441 | 121.52790 | 116 ft | 5 kts | 96° |
| 2026-04-27 15:30 | 38.96438 | 121.52829 | 114 ft | 4 kts | 96° |
| 2026-04-27 15:30 | 38.96434 | 121.52871 | 116 ft | 7 kts | 96° |
| 2026-04-27 15:30 | 38.96427 | 121.52963 | 114 ft | 13 kts | 96° |
| 2026-04-27 15:30 | 38.96418 | 121.53081 | 115 ft | 13 kts | 96° |
| 2026-04-27 15:31 | 38.96411 | 121.53193 | 114 ft | 12 kts | 89° |
| 2026-04-27 15:31 | 38.96420 | 121.53299 | 116 ft | 12 kts | 85° |
| 2026-04-27 15:31 | 38.96416 | 121.53400 | 113 ft | 11 kts | 95° |
| 2026-04-27 15:31 | 38.96394 | 121.53476 | 113 ft | 6 kts | 146° |
| 2026-04-27 15:32 | 38.96359 | 121.53480 | 113 ft | 5 kts | 181° |
| 2026-04-27 15:32 | 38.96330 | 121.53479 | 115 ft | 4 kts | 181° |
| 2026-04-27 15:32 | 38.96304 | 121.53478 | 113 ft | 4 kts | 182° |
| 2026-04-27 15:32 | 38.96270 | 121.53477 | 112 ft | 5 kts | 182° |
| 2026-04-27 15:33 | 38.96250 | 121.53476 | 114 ft | 0 kts | 182° |